createdAt,value
2022-08-14T00:00:07.599Z,53181.03
2022-08-14T00:02:39.973Z,53188.97
2022-08-14T00:05:11.427Z,53177.06
2022-08-14T00:07:41.778Z,53173.06
2022-08-14T00:10:52.071Z,53145.25
2022-08-14T00:13:05.042Z,53181.03
2022-08-14T00:15:44.241Z,53149.22
2022-08-14T00:18:31.022Z,53129.34
2022-08-14T00:21:11.098Z,53119.41
2022-08-14T00:23:41.634Z,53117.41
2022-08-14T00:26:21.487Z,53117.41
2022-08-14T00:28:51.821Z,53115.44
2022-08-14T00:31:35.156Z,53103.50
2022-08-14T00:34:36.684Z,53097.53
2022-08-14T00:36:59.555Z,53097.53
2022-08-14T00:39:30.343Z,53111.44
2022-08-14T00:42:01.052Z,53129.34
2022-08-14T00:44:32.434Z,53103.50
2022-08-14T00:47:02.519Z,53119.41
2022-08-14T00:49:38.286Z,53079.66
2022-08-14T00:52:14.155Z,53073.69
2022-08-14T00:54:47.331Z,53109.47
2022-08-14T00:57:17.188Z,53067.72
2022-08-14T00:59:45.986Z,53065.72
2022-08-14T01:02:17.656Z,53069.72
2022-08-14T01:04:53.910Z,53115.44
2022-08-14T01:07:24.332Z,53065.72
2022-08-14T01:09:57.315Z,53095.56
2022-08-14T01:12:28.976Z,53109.47
2022-08-14T01:15:00.449Z,53099.53
2022-08-14T01:17:49.641Z,53103.50
2022-08-14T01:20:39.364Z,53085.63
2022-08-14T01:23:16.311Z,53085.63
2022-08-14T01:25:49.214Z,53119.41
2022-08-14T01:28:47.120Z,53093.56
2022-08-14T01:31:14.531Z,53113.44
2022-08-14T01:33:59.998Z,53097.53
2022-08-14T01:36:38.346Z,53117.41
2022-08-14T01:39:13.765Z,53121.41
2022-08-14T01:41:44.075Z,53133.31
2022-08-14T01:44:32.350Z,53099.53
2022-08-14T01:47:05.927Z,53137.28
2022-08-14T01:49:35.796Z,53095.56
2022-08-14T01:52:34.244Z,53097.53
2022-08-14T01:55:06.680Z,53117.41
2022-08-14T01:58:01.053Z,53117.41
2022-08-14T02:00:27.753Z,53109.47
2022-08-14T02:02:58.445Z,53141.28
2022-08-14T02:05:29.528Z,53117.41
2022-08-14T02:08:08.783Z,53119.41
2022-08-14T02:10:47.153Z,53129.34
2022-08-14T02:13:19.101Z,53117.41
2022-08-14T02:15:50.242Z,53159.16
2022-08-14T02:18:19.317Z,53163.13
2022-08-14T02:20:48.929Z,53143.25
2022-08-14T02:23:29.084Z,53157.19
2022-08-14T02:26:24.312Z,53155.19
2022-08-14T02:29:00.405Z,53157.19
2022-08-14T02:31:42.437Z,53131.34
2022-08-14T02:34:22.090Z,53149.22
2022-08-14T02:37:03.768Z,53161.16
2022-08-14T02:39:38.336Z,53159.16
2022-08-14T02:42:13.173Z,53153.19
2022-08-14T02:44:49.597Z,53159.16
2022-08-14T02:47:21.004Z,53171.09
2022-08-14T02:49:56.760Z,53145.25
2022-08-14T02:52:57.687Z,53149.22
2022-08-14T02:55:20.499Z,53161.16
2022-08-14T02:58:03.299Z,53157.19
2022-08-14T03:00:35.409Z,53115.44
2022-08-14T03:03:08.823Z,53161.16
2022-08-14T03:05:41.187Z,53165.13
2022-08-14T03:08:15.355Z,53161.16
2022-08-14T03:10:49.548Z,53147.22
2022-08-14T03:13:22.001Z,53204.88
2022-08-14T03:15:55.171Z,53173.06
2022-08-14T03:18:31.938Z,53149.22
2022-08-14T03:21:03.907Z,53149.22
2022-08-14T03:23:38.161Z,53149.22
2022-08-14T03:26:12.644Z,53147.22
2022-08-14T03:28:45.485Z,53157.19
2022-08-14T03:31:15.074Z,53141.28
2022-08-14T03:33:44.409Z,53147.22
2022-08-14T03:37:37.814Z,53165.13
2022-08-14T03:39:14.913Z,53129.34
2022-08-14T03:41:52.021Z,53175.06
2022-08-14T03:45:25.325Z,53163.13
2022-08-14T03:47:12.207Z,53129.34
2022-08-14T03:49:44.043Z,53151.22
2022-08-14T03:52:38.531Z,53149.22
2022-08-14T03:55:03.932Z,53145.25
2022-08-14T03:57:32.547Z,53147.22
2022-08-14T04:00:06.561Z,53139.28
2022-08-14T04:02:47.135Z,53163.13
2022-08-14T04:05:16.581Z,53145.25
2022-08-14T04:07:49.704Z,53127.34
2022-08-14T04:10:35.646Z,53135.31
2022-08-14T04:13:06.198Z,53115.44
2022-08-14T04:15:52.861Z,53125.38
2022-08-14T04:18:24.952Z,53141.28
2022-08-14T04:20:55.316Z,53131.34
2022-08-14T04:23:29.748Z,53135.31
2022-08-14T04:26:03.267Z,53155.19
2022-08-14T04:29:02.197Z,53149.22
2022-08-14T04:31:34.675Z,53125.38
2022-08-14T04:34:20.759Z,53145.25
2022-08-14T04:37:10.728Z,53155.19
2022-08-14T04:39:57.895Z,53153.19
2022-08-14T04:42:51.349Z,53133.31
2022-08-14T04:45:23.357Z,53125.38
2022-08-14T04:48:12.736Z,53107.47
2022-08-14T04:50:43.868Z,53121.41
2022-08-14T04:53:14.661Z,53157.19
2022-08-14T04:55:45.994Z,53127.34
2022-08-14T04:58:21.706Z,53137.28
2022-08-14T05:00:52.111Z,53145.25
2022-08-14T05:03:25.221Z,53147.22
2022-08-14T05:05:55.728Z,53129.34
2022-08-14T05:08:31.732Z,53125.38
2022-08-14T05:11:13.237Z,53121.41
2022-08-14T05:16:32.493Z,53109.47
2022-08-14T05:19:24.890Z,53097.53
2022-08-14T05:22:01.166Z,53113.44
2022-08-14T05:24:44.754Z,53123.38
2022-08-14T05:27:13.210Z,53095.56
2022-08-14T05:29:44.842Z,53125.38
2022-08-14T05:32:16.081Z,53129.34
2022-08-14T05:34:47.648Z,53105.50
2022-08-14T05:37:16.459Z,53125.38
2022-08-14T05:39:44.849Z,53109.47
2022-08-14T05:42:21.528Z,53093.56
2022-08-14T05:44:55.910Z,53129.34
2022-08-14T05:47:33.771Z,53129.34
2022-08-14T05:50:17.545Z,53127.34
2022-08-14T05:52:50.875Z,53119.41
2022-08-14T05:55:22.669Z,53127.34
2022-08-14T05:57:54.407Z,53111.44
2022-08-14T06:00:29.979Z,53141.28
2022-08-14T06:03:04.213Z,53131.34
2022-08-14T06:05:38.625Z,53135.31
2022-08-14T06:08:08.656Z,53113.44
2022-08-14T06:11:02.897Z,53145.25
2022-08-14T06:13:44.740Z,53121.41
2022-08-14T06:16:13.853Z,53117.41
2022-08-14T06:18:48.281Z,53107.47
2022-08-14T06:21:18.416Z,53083.63
2022-08-14T06:23:49.089Z,53095.56
2022-08-14T06:26:20.750Z,53101.50
2022-08-14T06:28:52.022Z,53109.47
2022-08-14T06:31:23.009Z,53117.41
2022-08-14T06:35:11.838Z,53091.56
2022-08-14T06:36:42.349Z,53117.41
2022-08-14T06:39:11.003Z,53145.25
2022-08-14T06:41:58.372Z,53081.63
2022-08-14T06:44:30.333Z,53097.53
2022-08-14T06:46:59.334Z,53131.34
2022-08-14T06:49:28.107Z,53101.50
2022-08-14T06:52:00.815Z,53105.50
2022-08-14T06:54:32.096Z,53109.47
2022-08-14T06:57:00.607Z,53069.72
2022-08-14T06:59:29.372Z,53065.72
2022-08-14T07:02:17.964Z,53095.56
2022-08-14T07:05:06.234Z,53079.66
2022-08-14T07:07:41.345Z,53101.50
2022-08-14T07:10:17.008Z,53071.69
2022-08-14T07:13:01.844Z,53073.69
2022-08-14T07:15:33.885Z,53101.50
2022-08-14T07:18:03.767Z,53105.50
2022-08-14T07:20:37.394Z,53089.59
2022-08-14T07:23:19.853Z,53097.53
2022-08-14T07:25:51.524Z,53109.47
2022-08-14T07:28:24.524Z,53093.56
2022-08-14T07:31:04.616Z,53089.59
2022-08-14T07:33:41.746Z,53089.59
2022-08-14T07:36:26.923Z,53105.50
2022-08-14T07:39:00.768Z,53057.78
2022-08-14T07:41:35.782Z,53087.59
2022-08-14T07:44:32.811Z,53093.56
2022-08-14T07:46:54.005Z,53073.69
2022-08-14T07:49:24.488Z,53049.84
2022-08-14T07:51:53.041Z,53113.44
2022-08-14T07:54:30.417Z,53093.56
2022-08-14T07:57:00.769Z,53081.63
2022-08-14T07:59:41.475Z,53093.56
2022-08-14T08:02:17.154Z,53107.47
2022-08-14T08:04:52.975Z,53073.69
2022-08-14T08:07:24.289Z,53079.66
2022-08-14T08:10:02.160Z,53101.50
2022-08-14T08:12:32.714Z,53085.63
2022-08-14T08:15:07.682Z,53099.53
2022-08-14T08:17:38.574Z,53069.72
2022-08-14T08:20:20.048Z,53083.63
2022-08-14T08:22:55.922Z,53069.72
2022-08-14T08:25:26.817Z,53079.66
2022-08-14T08:27:56.895Z,53083.63
2022-08-14T08:30:27.118Z,53085.63
2022-08-14T08:32:58.728Z,53063.75
2022-08-14T08:35:32.979Z,53057.78
2022-08-14T08:39:14.821Z,53071.69
2022-08-14T08:41:11.414Z,53065.72
2022-08-14T08:43:45.814Z,53065.72
2022-08-14T08:46:21.536Z,53073.69
2022-08-14T08:51:30.877Z,53081.63
2022-08-14T08:54:04.713Z,53047.84
2022-08-14T08:56:41.103Z,53043.88
2022-08-14T08:59:27.352Z,53077.66
2022-08-14T09:02:05.056Z,53055.78
2022-08-14T09:04:45.489Z,53089.59
2022-08-14T09:07:27.391Z,53053.81
2022-08-14T09:09:59.882Z,53081.63
2022-08-14T09:12:31.982Z,53051.81
2022-08-14T09:15:04.302Z,53049.84
2022-08-14T09:17:41.584Z,53093.56
2022-08-14T09:20:25.723Z,53041.88
2022-08-14T09:22:55.860Z,53065.72
2022-08-14T09:25:58.566Z,53085.63
2022-08-14T09:28:17.128Z,53043.88
2022-08-14T09:30:49.054Z,53073.69
2022-08-14T09:33:32.922Z,53033.94
2022-08-14T09:36:37.585Z,53071.69
2022-08-14T09:39:23.298Z,53053.81
2022-08-14T09:42:21.890Z,53069.72
2022-08-14T09:45:11.707Z,53067.72
2022-08-14T09:47:46.573Z,53073.69
2022-08-14T09:50:26.159Z,53041.88
2022-08-14T09:52:58.681Z,53063.75
2022-08-14T09:55:36.899Z,53073.69
2022-08-14T09:58:20.060Z,53093.56
2022-08-14T10:00:55.194Z,53061.75
2022-08-14T10:03:33.386Z,53079.66
2022-08-14T10:06:08.799Z,53069.72
2022-08-14T10:08:50.828Z,53037.91
2022-08-14T10:11:23.164Z,53087.59
2022-08-14T10:13:55.967Z,53083.63
2022-08-14T10:16:33.803Z,53051.81
2022-08-14T10:19:09.368Z,53069.72
2022-08-14T10:21:58.225Z,53077.66
2022-08-14T10:24:36.605Z,53087.59
2022-08-14T10:27:06.581Z,53071.69
2022-08-14T10:29:37.629Z,53057.78
2022-08-14T10:32:18.075Z,53069.72
2022-08-14T10:35:06.493Z,53091.56
2022-08-14T10:37:46.978Z,53073.69
2022-08-14T10:40:38.011Z,53053.81
2022-08-14T10:43:18.094Z,53073.69
2022-08-14T10:45:59.873Z,53061.75
2022-08-14T10:48:36.961Z,53073.69
2022-08-14T10:51:08.635Z,53083.63
2022-08-14T10:53:40.076Z,53103.50
2022-08-14T10:56:21.496Z,53093.56
2022-08-14T10:59:02.838Z,53093.56
2022-08-14T11:01:40.859Z,53077.66
2022-08-14T11:04:30.444Z,53107.47
2022-08-14T11:06:59.774Z,53075.66
2022-08-14T11:09:32.128Z,53065.72
2022-08-14T11:12:33.818Z,53097.53
2022-08-14T11:14:59.200Z,53057.78
2022-08-14T11:17:32.035Z,53065.72
2022-08-14T11:20:04.959Z,53053.81
2022-08-14T11:23:02.905Z,53089.59
2022-08-14T11:25:25.688Z,53093.56
2022-08-14T11:28:18.843Z,53073.69
2022-08-14T11:30:54.293Z,53069.72
2022-08-14T11:33:24.740Z,53093.56
2022-08-14T11:35:59.506Z,53079.66
2022-08-14T11:38:29.261Z,53073.69
2022-08-14T11:40:58.664Z,53079.66
2022-08-14T11:43:30.680Z,53057.78
2022-08-14T11:46:03.582Z,53091.56
2022-08-14T11:49:01.960Z,53095.56
2022-08-14T11:51:26.165Z,53113.44
2022-08-14T11:54:08.166Z,53125.38
2022-08-14T11:56:37.955Z,53091.56
2022-08-14T11:59:10.253Z,53105.50
2022-08-14T12:01:41.109Z,53089.59
2022-08-14T12:04:32.774Z,53117.41
2022-08-14T12:07:03.720Z,53101.50
2022-08-14T12:09:34.156Z,53117.41
2022-08-14T12:12:03.508Z,53131.34
2022-08-14T12:14:35.974Z,53145.25
2022-08-14T12:17:13.449Z,53141.28
2022-08-14T12:19:50.725Z,53149.22
2022-08-14T12:22:34.007Z,53173.06
2022-08-14T12:25:07.125Z,53192.94
2022-08-14T12:27:51.733Z,53208.84
2022-08-14T12:30:35.898Z,53183.00
2022-08-14T12:33:09.226Z,53212.84
2022-08-14T12:35:39.921Z,53218.81
2022-08-14T12:38:14.843Z,53232.72
2022-08-14T12:40:51.417Z,53228.75
2022-08-14T12:43:21.802Z,53234.69
2022-08-14T12:45:52.095Z,53232.72
2022-08-14T12:48:31.646Z,53272.47
2022-08-14T12:51:01.028Z,53302.28
2022-08-14T12:53:38.931Z,53208.84
2022-08-14T12:56:21.478Z,53214.81
2022-08-14T12:59:00.002Z,53234.69
2022-08-14T13:01:30.921Z,53250.59
2022-08-14T13:04:11.695Z,53240.66
2022-08-14T13:06:45.199Z,53286.38
2022-08-14T13:09:28.075Z,53296.31
2022-08-14T13:12:32.576Z,53286.38
2022-08-14T13:15:00.325Z,53308.25
2022-08-14T13:17:36.890Z,53308.25
2022-08-14T13:20:10.693Z,53290.38
2022-08-14T13:22:56.202Z,53348.00
2022-08-14T13:25:28.750Z,53276.44
2022-08-14T13:28:00.187Z,53204.88
2022-08-14T13:30:29.511Z,53212.84
2022-08-14T13:33:00.237Z,53258.56
2022-08-14T13:35:29.910Z,53272.47
2022-08-14T13:37:58.608Z,53264.53
2022-08-14T13:40:30.204Z,53330.13
2022-08-14T13:43:02.220Z,53276.44
2022-08-14T13:46:00.071Z,53256.56
2022-08-14T13:48:32.394Z,53212.84
2022-08-14T13:51:10.671Z,53280.41
2022-08-14T13:54:01.526Z,53230.72
2022-08-14T13:56:40.123Z,53244.63
2022-08-14T13:59:10.339Z,53264.53
2022-08-14T14:01:43.675Z,53272.47
2022-08-14T14:04:19.821Z,53320.19
2022-08-14T14:06:50.862Z,53278.44
2022-08-14T14:09:37.503Z,53244.63
2022-08-14T14:12:38.302Z,53280.41
2022-08-14T14:15:57.971Z,53232.72
2022-08-14T14:18:34.202Z,53248.63
2022-08-14T14:21:06.870Z,53228.75
2022-08-14T14:23:38.924Z,53226.75
2022-08-14T14:26:14.050Z,53276.44
2022-08-14T14:28:50.748Z,53157.19
2022-08-14T14:31:24.171Z,53208.84
2022-08-14T14:34:07.311Z,53192.94
2022-08-14T14:36:50.107Z,53198.91
2022-08-14T14:39:25.724Z,53190.97
2022-08-14T14:41:59.567Z,53165.13
2022-08-14T14:44:40.672Z,53179.03
2022-08-14T14:47:10.965Z,53220.78
2022-08-14T14:49:51.270Z,53185.00
2022-08-14T14:52:27.033Z,53173.06
2022-08-14T14:54:58.891Z,53165.13
2022-08-14T14:57:35.913Z,53141.28
2022-08-14T15:00:12.664Z,53157.19
2022-08-14T15:02:45.448Z,53169.09
2022-08-14T15:05:20.413Z,53188.97
2022-08-14T15:07:52.863Z,53147.22
2022-08-14T15:10:27.323Z,53173.06
2022-08-14T15:13:03.420Z,53210.84
2022-08-14T15:15:36.830Z,53188.97
2022-08-14T15:18:36.810Z,53169.09
2022-08-14T15:20:58.557Z,53173.06
2022-08-14T15:23:43.669Z,53135.31
2022-08-14T15:26:27.702Z,53173.06
2022-08-14T15:29:04.889Z,53149.22
2022-08-14T15:31:37.464Z,53157.19
2022-08-14T15:34:44.143Z,53153.19
2022-08-14T15:37:06.212Z,53157.19
2022-08-14T15:39:45.377Z,53157.19
2022-08-14T15:42:16.775Z,53173.06
2022-08-14T15:44:57.450Z,53157.19
2022-08-14T15:47:35.975Z,53141.28
2022-08-14T15:50:13.347Z,53155.19
2022-08-14T15:52:43.051Z,53137.28
2022-08-14T15:55:20.344Z,53155.19
2022-08-14T15:58:03.470Z,53149.22
2022-08-14T16:01:00.867Z,53129.34
2022-08-14T16:03:35.714Z,53129.34
2022-08-14T16:06:15.514Z,53121.41
2022-08-14T16:08:58.537Z,53129.34
2022-08-14T16:11:32.697Z,53105.50
2022-08-14T16:14:02.323Z,53119.41
2022-08-14T16:16:50.580Z,53143.25
2022-08-14T16:19:23.967Z,53117.41
2022-08-14T16:26:33.322Z,53097.53
2022-08-14T16:29:05.271Z,53065.72
2022-08-14T16:31:36.812Z,53103.50
2022-08-14T16:34:45.576Z,53041.88
2022-08-14T16:36:58.413Z,53057.78
2022-08-14T16:39:28.601Z,53101.50
2022-08-14T16:42:00.551Z,53075.66
2022-08-14T16:44:50.780Z,53071.69
2022-08-14T16:47:22.479Z,53037.91
2022-08-14T16:50:04.805Z,53057.78
2022-08-14T16:52:45.043Z,53063.75
2022-08-14T16:55:30.301Z,53047.84
2022-08-14T16:58:00.100Z,53061.75
2022-08-14T17:00:32.964Z,53041.88
2022-08-14T17:03:13.162Z,53053.81
2022-08-14T17:05:47.048Z,53041.88
2022-08-14T17:08:32.311Z,53055.78
2022-08-14T17:11:12.729Z,53053.81
2022-08-14T17:24:57.649Z,53029.94
2022-08-14T17:27:23.780Z,53029.94
2022-08-14T17:29:57.685Z,53051.81
2022-08-14T17:32:55.885Z,53033.94
2022-08-14T17:35:58.778Z,53022.00
2022-08-14T17:38:38.475Z,53039.91
2022-08-14T17:44:21.520Z,53010.06
2022-08-14T17:46:55.365Z,53041.88
2022-08-14T17:49:32.123Z,53037.91
2022-08-14T17:52:07.847Z,53041.88
2022-08-14T17:54:52.775Z,53025.97
2022-08-14T17:57:40.617Z,53033.94
2022-08-14T18:00:14.734Z,53037.91
2022-08-14T18:02:50.644Z,53045.84
2022-08-14T18:05:23.210Z,53029.94
2022-08-14T18:08:34.003Z,53033.94
2022-08-14T18:11:01.023Z,53045.84
2022-08-14T18:13:51.205Z,53016.03
2022-08-14T18:16:22.557Z,53033.94
2022-08-14T18:18:51.909Z,53057.78
2022-08-14T18:21:41.650Z,53049.84
2022-08-14T18:24:20.114Z,53022.00
2022-08-14T18:27:09.115Z,53029.94
2022-08-14T18:29:55.268Z,53025.97
2022-08-14T18:32:55.517Z,53025.97
2022-08-14T18:35:45.390Z,53025.97
2022-08-14T18:38:55.203Z,53041.88
2022-08-14T18:41:36.966Z,53033.94
2022-08-14T18:44:10.672Z,53049.84
2022-08-14T18:47:16.072Z,53045.84
2022-08-14T18:50:26.857Z,53037.91
2022-08-14T18:53:07.467Z,53035.91
2022-08-14T18:55:54.497Z,53053.81
2022-08-14T18:58:34.039Z,53051.81
2022-08-14T19:01:06.309Z,53043.88
2022-08-14T19:03:58.817Z,53022.00
2022-08-14T19:06:56.662Z,53053.81
2022-08-14T19:09:58.268Z,53000.13
2022-08-14T19:13:00.352Z,53031.94
2022-08-14T19:15:31.486Z,53053.81
2022-08-14T19:18:00.621Z,53049.84
2022-08-14T19:20:49.057Z,53081.63
2022-08-14T19:23:42.272Z,53055.78
2022-08-14T19:26:36.173Z,53029.94
2022-08-14T19:29:37.785Z,53083.63
2022-08-14T19:32:40.315Z,53061.75
2022-08-14T19:35:55.521Z,53071.69
2022-08-14T19:38:59.692Z,53065.72
2022-08-14T19:41:34.107Z,53059.78
2022-08-14T19:44:14.145Z,53037.91
2022-08-14T19:47:00.397Z,53041.88
2022-08-14T19:50:30.312Z,53051.81
2022-08-14T19:52:29.735Z,53063.75
2022-08-14T19:55:01.092Z,53041.88
2022-08-14T19:57:31.580Z,53069.72
2022-08-14T20:00:28.410Z,53049.84
2022-08-14T20:03:09.970Z,53085.63
2022-08-14T20:05:45.381Z,53085.63
2022-08-14T20:10:58.464Z,53067.72
2022-08-14T20:11:19.229Z,53101.50
2022-08-14T20:14:10.246Z,53069.72
2022-08-14T20:16:41.945Z,53095.56
2022-08-14T20:19:21.088Z,53061.75
2022-08-14T20:22:04.163Z,53105.50
2022-08-14T20:24:45.291Z,53093.56
2022-08-14T20:27:33.428Z,53093.56
2022-08-14T20:30:29.919Z,53073.69
2022-08-14T20:33:01.490Z,53073.69
2022-08-14T20:35:36.304Z,53093.56
2022-08-14T20:38:30.334Z,53097.53
2022-08-14T20:40:58.134Z,53093.56
2022-08-14T20:43:48.194Z,53123.38
2022-08-14T20:46:30.123Z,53109.47
2022-08-14T20:49:01.514Z,53101.50
2022-08-14T20:51:37.463Z,53099.53
2022-08-14T20:54:08.776Z,53103.50
2022-08-14T20:56:40.868Z,53079.66
2022-08-14T20:59:19.500Z,53095.56
2022-08-14T21:01:55.191Z,53049.84
2022-08-14T21:04:28.503Z,53093.56
2022-08-14T21:07:25.823Z,53057.78
2022-08-14T21:10:04.906Z,53085.63
2022-08-14T21:12:35.835Z,53093.56
2022-08-14T21:15:10.147Z,53097.53
2022-08-14T21:17:43.352Z,53071.69
2022-08-14T21:20:26.401Z,53093.56
2022-08-14T21:23:00.404Z,53091.56
2022-08-14T21:25:31.502Z,53051.81
2022-08-14T21:28:04.120Z,53081.63
2022-08-14T21:30:46.699Z,53069.72
2022-08-14T21:33:21.895Z,53069.72
2022-08-14T21:35:54.896Z,53097.53
2022-08-14T21:38:33.549Z,53103.50
2022-08-14T21:41:42.677Z,53079.66
2022-08-14T21:44:17.139Z,53069.72
2022-08-14T21:46:50.230Z,53061.75
2022-08-14T21:49:23.484Z,53081.63
2022-08-14T21:51:59.961Z,53089.59
2022-08-14T21:54:49.397Z,53081.63
2022-08-14T21:57:55.828Z,53085.63
2022-08-14T22:00:30.227Z,53073.69
2022-08-14T22:03:03.019Z,53093.56
2022-08-14T22:05:32.970Z,53091.56
2022-08-14T22:08:04.033Z,53091.56
2022-08-14T22:10:36.266Z,53109.47
2022-08-14T22:13:05.649Z,53093.56
2022-08-14T22:15:35.610Z,53101.50
2022-08-14T22:18:06.092Z,53099.53
2022-08-14T22:20:36.410Z,53131.34
2022-08-14T22:23:08.669Z,53093.56
2022-08-14T22:25:42.928Z,53083.63
2022-08-14T22:28:15.728Z,53117.41
2022-08-14T22:30:45.230Z,53115.44
2022-08-14T22:33:16.449Z,53081.63
2022-08-14T22:35:47.010Z,53105.50
2022-08-14T22:38:37.192Z,53105.50
2022-08-14T22:41:27.758Z,53079.66
2022-08-14T22:44:01.953Z,53069.72
2022-08-14T22:46:30.537Z,53111.44
2022-08-14T22:48:59.644Z,53085.63
2022-08-14T22:51:48.510Z,53101.50
2022-08-14T22:54:52.059Z,53099.53
2022-08-14T22:57:10.383Z,53093.56
2022-08-14T22:59:39.785Z,53105.50
2022-08-14T23:02:12.826Z,53069.72
2022-08-14T23:04:53.837Z,53109.47
2022-08-14T23:07:25.993Z,53093.56
2022-08-14T23:10:33.789Z,53105.50
2022-08-14T23:13:05.366Z,53089.59
2022-08-14T23:15:35.383Z,53121.41
2022-08-14T23:18:06.400Z,53105.50
2022-08-14T23:20:36.166Z,53065.72
2022-08-14T23:23:13.357Z,53107.47
2022-08-14T23:26:00.158Z,53069.72
2022-08-14T23:28:32.958Z,53123.38
2022-08-14T23:31:05.612Z,53107.47
2022-08-14T23:33:35.939Z,53125.38
2022-08-14T23:36:31.621Z,53127.34
2022-08-14T23:39:07.297Z,53073.69
2022-08-14T23:41:46.475Z,53083.63
2022-08-14T23:44:24.396Z,53085.63
2022-08-14T23:46:57.039Z,53089.59
2022-08-14T23:50:00.762Z,53103.50
2022-08-14T23:52:55.979Z,53101.50
2022-08-14T23:55:11.153Z,53105.50
2022-08-14T23:57:43.916Z,53103.50
